Time;durP1;ratioP1;P1;durP2;ratioP2;P2;SDS_P1;SDS_P2;PMS_P1;PMS_P2;Temp;Humidity;BMP_temperature;BMP_pressure;BME280_temperature;BME280_humidity;BME280_pressure;Samples;Min_cycle;Max_cycle;Signal;HPM_P1;HPM_P2
2023/09/14 00:00:57;;;;;;;7.07;4.97;;;22.60;96.70;;;;;;5090488;28;20463;-71
2023/09/14 00:03:25;;;;;;;7.40;5.30;;;22.60;96.70;;;;;;5108243;28;20040;-71
2023/09/14 00:05:53;;;;;;;6.43;5.03;;;22.60;96.70;;;;;;5090342;28;20051;-72
2023/09/14 00:08:21;;;;;;;5.75;5.15;;;22.60;96.70;;;;;;5108340;28;20071;-71
2023/09/14 00:10:55;;;;;;;5.50;5.03;;;22.60;96.70;;;;;;5089798;28;20147;-71
2023/09/14 00:13:23;;;;;;;6.00;5.40;;;22.60;96.70;;;;;;5082396;28;20112;-71
2023/09/14 00:15:51;;;;;;;6.43;4.65;;;22.60;96.70;;;;;;5090644;28;20042;-72
2023/09/14 00:18:20;;;;;;;5.90;5.25;;;22.60;96.70;;;;;;5088901;28;20155;-71
2023/09/14 00:20:52;;;;;;;7.90;5.38;;;22.50;96.70;;;;;;5105300;28;20451;-71
2023/09/14 00:23:21;;;;;;;7.65;5.38;;;22.60;96.70;;;;;;5107608;28;20053;-71
2023/09/14 00:25:49;;;;;;;6.05;5.10;;;22.60;96.70;;;;;;5107727;28;20055;-71
2023/09/14 00:28:19;;;;;;;7.47;5.38;;;22.50;96.70;;;;;;5089564;28;20774;-71
2023/09/14 00:30:51;;;;;;;5.40;4.90;;;22.50;96.70;;;;;;5089961;28;20048;-71
2023/09/14 00:33:22;;;;;;;6.72;5.25;;;22.40;96.70;;;;;;5089528;28;20062;-72
2023/09/14 00:35:50;;;;;;;6.93;5.72;;;22.40;96.70;;;;;;5088957;28;20507;-71
2023/09/14 00:38:18;;;;;;;6.40;5.55;;;22.40;96.70;;;;;;5089406;28;20088;-71
2023/09/14 00:40:48;;;;;;;6.22;5.40;;;22.40;96.70;;;;;;5107598;28;20058;-71
2023/09/14 00:43:19;;;;;;;6.07;5.47;;;22.40;96.70;;;;;;5107326;28;20304;-72
2023/09/14 00:45:47;;;;;;;6.80;6.10;;;22.40;96.70;;;;;;5092816;28;20613;-72
2023/09/14 00:48:16;;;;;;;8.38;5.70;;;22.40;96.70;;;;;;5072291;28;20062;-71
2023/09/14 00:50:45;;;;;;;6.47;5.85;;;22.40;96.70;;;;;;5096292;28;20708;-71
2023/09/14 00:53:16;;;;;;;7.93;6.25;;;22.40;96.70;;;;;;5082771;28;20043;-72
2023/09/14 00:55:46;;;;;;;8.85;6.28;;;22.40;96.70;;;;;;5107012;28;20659;-71
2023/09/14 00:58:15;;;;;;;6.88;6.18;;;22.30;96.70;;;;;;5072508;28;20062;-71
2023/09/14 01:00:46;;;;;;;6.57;5.97;;;22.30;96.70;;;;;;5072181;28;20538;-71
2023/09/14 01:03:15;;;;;;;7.13;6.00;;;22.30;96.70;;;;;;5080682;28;20052;-71
2023/09/14 01:05:45;;;;;;;7.25;6.30;;;22.30;96.70;;;;;;5088683;28;20043;-73
2023/09/14 01:08:13;;;;;;;7.10;6.40;;;22.20;96.70;;;;;;5072603;28;20109;-72
2023/09/14 01:10:43;;;;;;;9.23;6.63;;;22.20;96.70;;;;;;5088872;28;20069;-71
2023/09/14 01:13:22;;;;;;;6.80;6.10;;;22.30;96.70;;;;;;5086275;28;20120;-71
2023/09/14 01:15:58;;;;;;;7.00;5.65;;;22.30;96.70;;;;;;5092482;28;20040;-71
2023/09/14 01:18:32;;;;;;;6.65;5.65;;;22.20;96.70;;;;;;5088459;28;20055;-72
2023/09/14 01:21:30;;;;;;;6.70;5.45;;;22.20;96.70;;;;;;5088980;28;20048;-71
2023/09/14 01:24:15;;;;;;;7.28;5.53;;;22.40;96.70;;;;;;5080676;27;20046;-71
2023/09/14 01:26:44;;;;;;;7.40;5.60;;;22.40;96.70;;;;;;5072122;28;20055;-71
2023/09/14 01:29:13;;;;;;;7.30;5.80;;;22.30;96.70;;;;;;5080095;28;20042;-71
2023/09/14 01:31:42;;;;;;;8.75;5.78;;;22.20;96.70;;;;;;5088382;28;20412;-71
2023/09/14 01:34:10;;;;;;;7.68;6.47;;;22.20;96.70;;;;;;5097609;28;20134;-71
2023/09/14 01:36:47;;;;;;;8.68;6.25;;;22.10;96.70;;;;;;5075008;28;20058;-71
2023/09/14 01:39:17;;;;;;;8.02;6.80;;;22.10;96.70;;;;;;5106369;28;20093;-73
2023/09/14 01:41:49;;;;;;;7.43;6.70;;;22.10;96.70;;;;;;5088283;28;20055;-72
2023/09/14 01:44:17;;;;;;;8.65;6.40;;;22.10;96.70;;;;;;5071612;28;20048;-72
2023/09/14 01:46:46;;;;;;;9.35;7.00;;;22.10;96.70;;;;;;5088367;28;20044;-72
2023/09/14 01:49:14;;;;;;;7.55;6.75;;;22.10;96.70;;;;;;5086678;28;20467;-72
2023/09/14 01:51:42;;;;;;;7.80;6.93;;;22.10;96.70;;;;;;5071174;28;20040;-72
2023/09/14 01:54:10;;;;;;;7.50;6.80;;;22.00;96.70;;;;;;5105973;28;20479;-71
2023/09/14 01:56:39;;;;;;;6.93;6.25;;;22.00;96.70;;;;;;5071056;28;20043;-71
2023/09/14 01:59:09;;;;;;;8.32;6.15;;;22.00;96.70;;;;;;5071652;28;20059;-71
2023/09/14 02:01:37;;;;;;;7.20;6.50;;;22.00;96.70;;;;;;5070921;28;20067;-72
2023/09/14 02:04:06;;;;;;;8.65;6.00;;;22.10;96.70;;;;;;5087384;28;20047;-72
2023/09/14 02:06:34;;;;;;;6.82;6.22;;;22.10;96.70;;;;;;5105694;28;20044;-71
2023/09/14 02:09:03;;;;;;;6.47;5.72;;;22.10;96.70;;;;;;5105885;28;20051;-71
2023/09/14 02:11:31;;;;;;;7.75;6.93;;;22.00;96.70;;;;;;5104611;28;20039;-71
2023/09/14 02:13:59;;;;;;;7.22;6.45;;;21.90;96.70;;;;;;5105838;28;20708;-71
2023/09/14 02:16:29;;;;;;;8.13;6.10;;;21.90;96.70;;;;;;5100193;28;20501;-72
2023/09/14 02:18:57;;;;;;;6.55;5.60;;;21.90;96.70;;;;;;5087815;28;20035;-72
2023/09/14 02:21:25;;;;;;;7.20;5.47;;;21.90;96.70;;;;;;5095805;28;20063;-72
2023/09/14 02:23:54;;;;;;;6.45;5.57;;;21.90;96.70;;;;;;5087693;28;20051;-71
2023/09/14 02:26:22;;;;;;;7.03;5.25;;;21.90;96.70;;;;;;5087541;28;20048;-71
2023/09/14 02:28:49;;;;;;;6.45;4.88;;;21.80;96.70;;;;;;5105549;28;20044;-71
2023/09/14 02:31:19;;;;;;;5.63;5.10;;;21.80;96.70;;;;;;5105864;28;20035;-71
2023/09/14 02:33:48;;;;;;;5.68;5.18;;;21.80;96.70;;;;;;5087432;28;20101;-71
2023/09/14 02:36:17;;;;;;;6.93;5.32;;;21.80;96.70;;;;;;5087109;28;20489;-71
2023/09/14 02:38:45;;;;;;;5.20;4.68;;;21.80;96.70;;;;;;5087520;28;20055;-71
2023/09/14 02:41:14;;;;;;;4.75;4.30;;;21.80;96.70;;;;;;5105319;28;20488;-71
2023/09/14 02:43:42;;;;;;;9.25;5.40;;;21.70;96.70;;;;;;5083052;28;20043;-72
2023/09/14 02:46:10;;;;;;;6.30;4.45;;;21.70;96.70;;;;;;5086981;28;20112;-71
2023/09/14 02:48:38;;;;;;;6.10;4.47;;;21.70;96.70;;;;;;5086837;28;20049;-71
2023/09/14 02:51:08;;;;;;;7.00;4.80;;;21.60;96.70;;;;;;5087131;28;20043;-71
2023/09/14 02:53:36;;;;;;;5.25;4.80;;;21.60;96.70;;;;;;5086994;28;20040;-71
2023/09/14 02:56:09;;;;;;;5.32;4.85;;;21.70;96.70;;;;;;5087273;28;20048;-71
2023/09/14 02:58:38;;;;;;;6.45;4.97;;;21.70;96.70;;;;;;5086834;28;20477;-70
2023/09/14 03:01:08;;;;;;;8.02;5.15;;;21.60;96.70;;;;;;5062592;28;20092;-71
2023/09/14 03:03:39;;;;;;;5.47;4.80;;;21.50;96.70;;;;;;5070313;28;20063;-71
2023/09/14 03:06:09;;;;;;;4.50;4.10;;;21.60;96.70;;;;;;5087083;28;20051;-72
2023/09/14 03:08:37;;;;;;;7.43;4.70;;;21.60;96.70;;;;;;5082007;28;20081;-71
2023/09/14 03:11:05;;;;;;;5.95;5.22;;;21.50;96.70;;;;;;5087003;28;20051;-71
2023/09/14 03:13:33;;;;;;;6.43;4.13;;;21.50;96.70;;;;;;5086948;28;20043;-71
2023/09/14 03:16:01;;;;;;;6.57;4.55;;;21.60;96.70;;;;;;5091271;28;20052;-71
2023/09/14 03:18:31;;;;;;;5.30;4.65;;;21.50;96.70;;;;;;5109011;28;20039;-71
2023/09/14 03:20:59;;;;;;;5.43;4.93;;;21.50;96.70;;;;;;5109444;28;20554;-71
2023/09/14 03:23:29;;;;;;;5.80;4.40;;;21.40;96.70;;;;;;5074101;28;20044;-71
2023/09/14 03:25:57;;;;;;;8.70;4.68;;;21.40;96.70;;;;;;5090590;28;20547;-72
2023/09/14 03:28:26;;;;;;;7.07;4.95;;;21.40;96.70;;;;;;5074009;28;20104;-71
2023/09/14 03:30:54;;;;;;;6.40;5.25;;;21.40;96.70;;;;;;5109006;28;20044;-72
2023/09/14 03:33:22;;;;;;;5.10;4.70;;;21.40;96.70;;;;;;5091121;28;20513;-72
2023/09/14 03:35:50;;;;;;;5.75;5.15;;;21.30;96.70;;;;;;5073803;28;20063;-72
2023/09/14 03:38:19;;;;;;;5.45;4.38;;;21.30;96.70;;;;;;5108380;28;20058;-71
2023/09/14 03:40:49;;;;;;;5.75;4.60;;;21.30;96.70;;;;;;5097737;28;20074;-71
2023/09/14 03:43:17;;;;;;;4.57;4.18;;;21.30;96.70;;;;;;5074139;28;20142;-71
2023/09/14 03:45:45;;;;;;;4.97;4.47;;;21.30;96.70;;;;;;5095272;28;20067;-71
2023/09/14 03:48:13;;;;;;;6.50;4.50;;;21.30;96.70;;;;;;5090361;28;20432;-71
2023/09/14 03:50:42;;;;;;;7.18;5.10;;;21.30;96.70;;;;;;5108838;28;20105;-71
2023/09/14 03:53:10;;;;;;;5.05;4.53;;;21.20;96.70;;;;;;5076278;28;20048;-71
2023/09/14 03:55:41;;;;;;;6.47;5.20;;;21.10;96.70;;;;;;5073536;28;20062;-72
2023/09/14 03:58:13;;;;;;;5.43;4.80;;;21.10;96.70;;;;;;5074155;28;20047;-71
2023/09/14 04:00:42;;;;;;;5.72;4.68;;;21.10;96.70;;;;;;5108549;28;20452;-71
2023/09/14 04:03:11;;;;;;;5.30;4.90;;;21.10;96.70;;;;;;5090000;28;20047;-71
2023/09/14 04:05:39;;;;;;;6.05;5.00;;;21.00;96.70;;;;;;5098240;28;20064;-71
2023/09/14 04:08:07;;;;;;;5.57;4.90;;;21.00;96.70;;;;;;5089946;28;20054;-71
2023/09/14 04:10:37;;;;;;;6.15;4.60;;;21.00;96.70;;;;;;5090637;28;20879;-71
2023/09/14 04:13:27;;;;;;;5.45;4.95;;;21.00;96.70;;;;;;5090230;28;20047;-71
2023/09/14 04:15:57;;;;;;;7.85;5.55;;;21.10;96.70;;;;;;5081779;28;20480;-72
2023/09/14 04:18:26;;;;;;;7.20;4.80;;;21.10;96.70;;;;;;5107860;28;20044;-72
2023/09/14 04:20:55;;;;;;;5.70;4.70;;;21.10;96.70;;;;;;5090110;28;20508;-71
2023/09/14 04:23:23;;;;;;;5.28;4.78;;;21.10;96.70;;;;;;5090137;28;20075;-71
2023/09/14 04:25:52;;;;;;;5.45;4.95;;;21.10;96.70;;;;;;5073013;28;20039;-71
2023/09/14 04:28:23;;;;;;;5.22;4.72;;;21.20;96.70;;;;;;5097893;28;20060;-72
2023/09/14 04:30:54;;;;;;;6.70;4.70;;;21.10;96.70;;;;;;5089632;28;20047;-71
2023/09/14 04:33:23;;;;;;;5.88;4.72;;;21.10;96.70;;;;;;5073166;28;20539;-72
2023/09/14 04:35:56;;;;;;;5.10;4.60;;;21.10;96.70;;;;;;5068499;28;20498;-72
2023/09/14 04:38:26;;;;;;;5.93;5.20;;;21.10;96.70;;;;;;5085062;28;20056;-71
2023/09/14 04:40:54;;;;;;;4.85;4.45;;;21.10;96.70;;;;;;5063258;28;20041;-72
2023/09/14 04:43:22;;;;;;;6.22;5.38;;;21.00;96.70;;;;;;5085749;28;20048;-72
2023/09/14 04:45:50;;;;;;;7.25;5.65;;;21.00;96.70;;;;;;5069871;28;20760;-71
2023/09/14 04:48:20;;;;;;;6.63;4.53;;;21.00;96.70;;;;;;5068749;28;20052;-71
2023/09/14 04:50:48;;;;;;;5.18;4.63;;;21.00;96.70;;;;;;5086991;28;20082;-71
2023/09/14 04:53:18;;;;;;;5.70;5.20;;;21.00;96.70;;;;;;5087036;28;20040;-71
2023/09/14 04:55:46;;;;;;;6.43;4.82;;;21.00;96.70;;;;;;5085283;28;20055;-71
2023/09/14 04:58:14;;;;;;;5.63;4.93;;;21.10;96.70;;;;;;5068830;28;20165;-72
2023/09/14 05:00:43;;;;;;;5.28;4.78;;;21.10;96.70;;;;;;5082287;28;20110;-71
2023/09/14 05:03:11;;;;;;;7.00;5.43;;;21.10;96.70;;;;;;5085173;28;20036;-71
2023/09/14 05:05:41;;;;;;;6.70;5.13;;;21.10;96.70;;;;;;5068420;28;20578;-71
2023/09/14 05:08:09;;;;;;;6.00;5.10;;;21.10;96.70;;;;;;5085507;28;20058;-72
2023/09/14 05:10:37;;;;;;;6.68;5.07;;;21.20;96.70;;;;;;5085454;28;20147;-71
2023/09/14 05:13:06;;;;;;;7.45;5.18;;;21.10;96.70;;;;;;5085279;28;20043;-72
2023/09/14 05:15:34;;;;;;;5.85;5.15;;;21.00;96.70;;;;;;5086665;28;20047;-72
2023/09/14 05:18:02;;;;;;;7.90;5.20;;;21.10;96.70;;;;;;5084749;28;20048;-72
2023/09/14 05:20:30;;;;;;;8.02;5.25;;;21.10;96.70;;;;;;5086166;28;20036;-72
2023/09/14 05:23:00;;;;;;;7.63;5.35;;;21.20;96.70;;;;;;5085109;28;20044;-71
2023/09/14 05:25:28;;;;;;;6.38;4.95;;;21.10;96.70;;;;;;5085039;28;20060;-71
2023/09/14 05:27:57;;;;;;;6.43;5.25;;;21.10;96.70;;;;;;5084874;28;20135;-71
2023/09/14 05:30:26;;;;;;;8.05;6.00;;;21.20;96.70;;;;;;5085154;28;20052;-71
2023/09/14 05:32:54;;;;;;;8.43;5.75;;;21.20;96.70;;;;;;5079298;28;20037;-71
2023/09/14 05:35:23;;;;;;;7.53;5.55;;;21.20;96.70;;;;;;5070149;28;20440;-71
2023/09/14 05:37:51;;;;;;;7.35;5.57;;;21.10;96.70;;;;;;5105874;28;20090;-72
2023/09/14 05:40:21;;;;;;;6.50;5.15;;;21.10;96.70;;;;;;5071574;28;20092;-71
2023/09/14 05:42:49;;;;;;;7.00;5.50;;;21.10;96.70;;;;;;5071672;28;20851;-72
2023/09/14 05:45:18;;;;;;;8.38;6.82;;;21.20;96.70;;;;;;5088060;28;20044;-71
2023/09/14 05:47:47;;;;;;;8.98;5.97;;;21.20;96.70;;;;;;5097692;28;20501;-71
2023/09/14 05:50:15;;;;;;;7.85;6.03;;;21.20;96.70;;;;;;5087360;28;20040;-71
2023/09/14 05:52:43;;;;;;;9.07;5.50;;;21.20;96.70;;;;;;5106361;28;20048;-71
2023/09/14 05:55:11;;;;;;;6.90;6.18;;;21.20;96.70;;;;;;5087817;28;20572;-72
2023/09/14 05:57:40;;;;;;;6.45;5.45;;;21.30;96.70;;;;;;5099371;28;20071;-71
2023/09/14 06:00:13;;;;;;;7.13;5.70;;;21.30;96.70;;;;;;5088291;28;20050;-71
2023/09/14 06:02:49;;;;;;;7.95;6.10;;;21.30;96.70;;;;;;5087621;28;20585;-71
2023/09/14 06:05:18;;;;;;;9.13;6.50;;;21.40;96.70;;;;;;5105951;28;20048;-72
2023/09/14 06:07:51;;;;;;;7.07;5.82;;;21.40;96.70;;;;;;5087746;28;20139;-71
2023/09/14 06:10:20;;;;;;;9.93;6.90;;;21.40;96.70;;;;;;5105722;28;20043;-72
2023/09/14 06:12:51;;;;;;;10.50;7.20;;;21.50;96.70;;;;;;5106245;28;20036;-71
2023/09/14 06:15:19;;;;;;;8.73;6.28;;;21.60;96.70;;;;;;5105975;28;20044;-71
2023/09/14 06:17:47;;;;;;;7.72;5.95;;;21.60;96.70;;;;;;5087500;28;20048;-71
2023/09/14 06:20:16;;;;;;;7.40;5.97;;;21.60;96.70;;;;;;5105509;28;20043;-71
2023/09/14 06:22:44;;;;;;;9.35;6.90;;;21.70;96.70;;;;;;5087990;28;20047;-71
2023/09/14 06:25:12;;;;;;;11.40;7.72;;;21.70;96.70;;;;;;5070866;28;20055;-72
2023/09/14 06:27:40;;;;;;;9.85;7.47;;;21.80;96.70;;;;;;5070586;28;20051;-71
2023/09/14 06:30:11;;;;;;;6.97;6.28;;;21.90;96.70;;;;;;5087432;28;20043;-71
2023/09/14 06:32:39;;;;;;;7.95;5.70;;;21.90;96.70;;;;;;5087309;28;20052;-71
2023/09/14 06:35:08;;;;;;;6.13;5.55;;;21.90;96.70;;;;;;5087586;28;20040;-71
2023/09/14 06:37:36;;;;;;;7.80;6.85;;;21.90;96.70;;;;;;5095903;28;20081;-71
2023/09/14 06:40:06;;;;;;;7.00;5.82;;;21.90;96.70;;;;;;5105353;28;20054;-72
2023/09/14 06:42:35;;;;;;;7.07;6.32;;;21.90;96.70;;;;;;5097183;28;20071;-72
2023/09/14 06:45:06;;;;;;;9.10;6.47;;;21.90;96.70;;;;;;5090777;28;20054;-71
2023/09/14 06:47:35;;;;;;;8.35;6.15;;;22.00;96.70;;;;;;5104886;28;20492;-72
2023/09/14 06:50:04;;;;;;;8.13;6.25;;;22.00;96.70;;;;;;5105259;28;20122;-72
2023/09/14 06:52:33;;;;;;;7.68;6.88;;;22.10;96.70;;;;;;5104354;28;20048;-71
2023/09/14 06:55:02;;;;;;;7.20;6.50;;;22.00;96.70;;;;;;5087184;28;20035;-72
2023/09/14 06:57:30;;;;;;;8.05;6.32;;;22.00;96.70;;;;;;5105372;28;20535;-72
2023/09/14 07:00:00;;;;;;;8.18;6.85;;;22.10;96.70;;;;;;5087593;28;20071;-71
2023/09/14 07:02:28;;;;;;;8.80;6.72;;;22.30;96.70;;;;;;5070153;28;20051;-70
2023/09/14 07:04:58;;;;;;;9.88;7.25;;;22.40;96.70;;;;;;5086908;28;20100;-71
2023/09/14 07:07:26;;;;;;;11.52;7.30;;;22.40;96.70;;;;;;5105272;28;20054;-71
2023/09/14 07:09:54;;;;;;;9.75;6.85;;;22.40;96.70;;;;;;5078610;28;20489;-71
2023/09/14 07:12:22;;;;;;;7.78;6.97;;;22.50;96.70;;;;;;5085153;28;20043;-71
2023/09/14 07:14:50;;;;;;;12.55;8.05;;;22.50;96.70;;;;;;5105061;28;20035;-71
2023/09/14 07:17:18;;;;;;;10.80;8.00;;;22.60;96.70;;;;;;5096293;28;20044;-71
2023/09/14 07:19:50;;;;;;;11.40;7.05;;;22.70;96.70;;;;;;5087390;28;20059;-71
2023/09/14 07:22:20;;;;;;;8.55;7.30;;;22.70;96.70;;;;;;5070039;28;20094;-72
2023/09/14 07:24:48;;;;;;;10.55;8.00;;;22.80;96.70;;;;;;5087001;28;20062;-71
2023/09/14 07:27:16;;;;;;;9.73;7.32;;;22.80;96.70;;;;;;5104577;28;20036;-71
2023/09/14 07:29:46;;;;;;;9.65;6.88;;;22.80;96.70;;;;;;5061809;28;20493;-72
2023/09/14 07:32:15;;;;;;;9.23;7.80;;;22.90;96.70;;;;;;5086670;28;20055;-71
2023/09/14 07:34:43;;;;;;;9.65;8.55;;;23.00;96.70;;;;;;5087117;28;20520;-71
2023/09/14 07:37:11;;;;;;;12.18;8.38;;;23.10;96.70;;;;;;5086675;28;20124;-71
2023/09/14 07:39:40;;;;;;;12.88;8.40;;;23.10;96.70;;;;;;5105375;28;20501;-71
2023/09/14 07:42:09;;;;;;;8.50;7.40;;;23.20;96.70;;;;;;5086504;28;20166;-72
2023/09/14 07:44:37;;;;;;;14.85;7.43;;;23.20;96.70;;;;;;5086961;28;20054;-72
2023/09/14 07:47:05;;;;;;;11.20;8.05;;;23.30;96.70;;;;;;5070090;28;20086;-72
2023/09/14 07:49:36;;;;;;;15.10;8.57;;;23.30;96.70;;;;;;5082142;28;20138;-72
2023/09/14 07:52:05;;;;;;;9.82;7.68;;;23.30;96.70;;;;;;5086464;28;20040;-71
2023/09/14 07:54:34;;;;;;;8.85;7.57;;;23.40;96.70;;;;;;5085955;28;20036;-71
2023/09/14 07:57:04;;;;;;;13.75;8.30;;;23.50;96.70;;;;;;5104515;28;20414;-71
2023/09/14 07:59:32;;;;;;;10.75;7.55;;;23.60;96.70;;;;;;5087021;28;20058;-71
2023/09/14 08:02:00;;;;;;;9.25;7.72;;;23.70;96.70;;;;;;5090649;28;20039;-71
2023/09/14 08:04:28;;;;;;;12.27;8.13;;;23.80;96.70;;;;;;5108441;28;20036;-71
2023/09/14 08:06:57;;;;;;;9.48;8.32;;;23.90;96.70;;;;;;5108310;28;20050;-71
2023/09/14 08:09:25;;;;;;;7.35;6.72;;;24.00;96.70;;;;;;5064544;28;20048;-70
2023/09/14 08:11:53;;;;;;;7.97;7.13;;;24.10;96.70;;;;;;5108227;28;20046;-71
2023/09/14 08:14:23;;;;;;;9.93;7.05;;;24.10;96.70;;;;;;5108314;28;20046;-71
2023/09/14 08:16:51;;;;;;;6.38;5.78;;;24.10;96.70;;;;;;5108411;28;20051;-71
2023/09/14 08:19:19;;;;;;;7.20;5.90;;;24.10;96.70;;;;;;5107826;28;20730;-71
2023/09/14 08:21:47;;;;;;;8.55;7.00;;;24.20;96.70;;;;;;5100234;28;20440;-71
2023/09/14 08:24:15;;;;;;;7.70;6.68;;;24.30;96.70;;;;;;5089787;28;21448;-72
2023/09/14 08:26:44;;;;;;;6.85;5.82;;;24.50;96.70;;;;;;5089817;28;20051;-71
2023/09/14 08:29:12;;;;;;;10.20;5.50;;;24.50;96.70;;;;;;5108469;28;20036;-71
2023/09/14 08:31:43;;;;;;;5.85;5.22;;;24.70;96.70;;;;;;5108206;28;20464;-71
2023/09/14 08:34:12;;;;;;;7.18;5.10;;;24.80;96.70;;;;;;5089891;28;20054;-71
2023/09/14 08:36:41;;;;;;;7.50;5.55;;;24.90;96.70;;;;;;5099330;28;20048;-71
2023/09/14 08:39:09;;;;;;;7.65;5.50;;;24.90;96.70;;;;;;5072746;28;20044;-71
2023/09/14 08:41:44;;;;;;;6.78;5.57;;;25.00;96.70;;;;;;5090910;28;20048;-71
2023/09/14 08:44:14;;;;;;;7.25;5.63;;;25.10;96.70;;;;;;5091205;28;20084;-71
2023/09/14 08:46:44;;;;;;;5.63;5.13;;;25.20;96.70;;;;;;5099420;27;20043;-72
2023/09/14 08:49:13;;;;;;;6.70;5.32;;;25.30;96.70;;;;;;5095403;28;20505;-72
2023/09/14 08:51:42;;;;;;;5.78;5.28;;;25.50;96.70;;;;;;5107641;28;20040;-71
2023/09/14 08:54:10;;;;;;;10.98;5.95;;;25.60;96.70;;;;;;5107406;28;20043;-71
2023/09/14 08:56:45;;;;;;;6.30;5.50;;;25.70;96.70;;;;;;5107267;28;20400;-72
2023/09/14 08:59:16;;;;;;;6.38;5.32;;;25.70;96.70;;;;;;5089219;28;20149;-72
2023/09/14 09:01:48;;;;;;;6.82;6.00;;;25.80;96.70;;;;;;5107540;28;20043;-72
2023/09/14 09:04:16;;;;;;;9.38;5.70;;;25.90;96.70;;;;;;5107444;28;20043;-71
2023/09/14 09:06:46;;;;;;;6.60;5.88;;;26.00;96.70;;;;;;5107634;28;20524;-72
2023/09/14 09:09:17;;;;;;;7.15;5.90;;;26.10;96.70;;;;;;5086373;28;20063;-72
2023/09/14 09:11:47;;;;;;;9.57;6.00;;;26.10;96.70;;;;;;5086700;28;20055;-71
2023/09/14 09:14:15;;;;;;;6.90;6.25;;;26.10;96.70;;;;;;5097512;28;20726;-72
2023/09/14 09:16:43;;;;;;;7.10;5.80;;;26.10;96.70;;;;;;5072309;28;20055;-71
2023/09/14 09:19:13;;;;;;;9.70;6.72;;;26.00;96.70;;;;;;5099532;28;20413;-72
2023/09/14 09:21:42;;;;;;;7.43;6.43;;;26.00;96.70;;;;;;5090416;28;20481;-71
2023/09/14 09:24:13;;;;;;;9.05;5.60;;;26.10;96.70;;;;;;5071806;28;20086;-72
2023/09/14 09:26:41;;;;;;;7.90;6.00;;;26.20;96.70;;;;;;5106779;28;20052;-72
2023/09/14 09:29:16;;;;;;;8.02;6.40;;;26.20;96.70;;;;;;5107007;28;20146;-71
2023/09/14 09:31:46;;;;;;;9.15;6.47;;;26.20;96.70;;;;;;5088444;28;20066;-72
2023/09/14 09:34:19;;;;;;;9.02;6.75;;;26.20;96.70;;;;;;5106331;28;20118;-72
2023/09/14 09:36:48;;;;;;;6.22;5.63;;;26.40;96.70;;;;;;5098508;28;20051;-73
2023/09/14 09:39:16;;;;;;;8.02;5.78;;;26.40;96.70;;;;;;5106573;28;20489;-71
2023/09/14 09:41:45;;;;;;;7.75;5.97;;;26.30;96.70;;;;;;5104669;28;20039;-72
2023/09/14 09:44:15;;;;;;;6.72;5.30;;;26.40;96.70;;;;;;5106403;28;20126;-72
2023/09/14 09:46:44;;;;;;;7.13;5.65;;;26.30;96.70;;;;;;5105746;28;20131;-72
2023/09/14 09:49:19;;;;;;;6.13;5.45;;;26.40;96.70;;;;;;5097731;28;20063;-71
2023/09/14 09:51:51;;;;;;;9.27;5.47;;;26.50;96.70;;;;;;5088428;28;20039;-72
2023/09/14 09:54:20;;;;;;;5.80;5.03;;;26.70;96.70;;;;;;5106699;28;20426;-71
2023/09/14 09:56:49;;;;;;;7.80;4.95;;;26.70;96.70;;;;;;5087912;28;20412;-73
2023/09/14 09:59:17;;;;;;;6.22;4.78;;;26.80;96.70;;;;;;5105503;28;20138;-71
2023/09/14 10:01:46;;;;;;;7.28;4.78;;;26.90;96.70;;;;;;5106203;28;20633;-72
2023/09/14 10:04:17;;;;;;;5.93;4.32;;;27.10;96.70;;;;;;5087741;28;20139;-72
2023/09/14 10:06:50;;;;;;;6.78;4.85;;;27.10;96.70;;;;;;5088094;28;20047;-71
2023/09/14 10:09:19;;;;;;;8.68;5.07;;;27.10;96.70;;;;;;5106222;28;20036;-72
2023/09/14 10:11:49;;;;;;;7.63;5.00;;;27.20;96.70;;;;;;5087871;28;20478;-72
2023/09/14 10:14:21;;;;;;;6.90;4.60;;;27.40;96.70;;;;;;5087865;28;20493;-70
2023/09/14 10:16:52;;;;;;;5.40;4.55;;;27.50;96.70;;;;;;5106449;28;20040;-71
2023/09/14 10:19:22;;;;;;;5.90;4.40;;;27.70;96.70;;;;;;5070838;28;20047;-72
2023/09/14 10:21:52;;;;;;;7.72;3.90;;;27.70;96.70;;;;;;5105742;28;20122;-71
2023/09/14 10:24:21;;;;;;;6.38;4.07;;;27.70;96.70;;;;;;5096971;28;20047;-72
2023/09/14 10:26:51;;;;;;;7.45;4.70;;;27.90;96.70;;;;;;5105917;28;20043;-72
2023/09/14 10:29:23;;;;;;;4.57;4.18;;;28.10;96.70;;;;;;5105791;28;20062;-72
2023/09/14 10:31:54;;;;;;;8.23;4.22;;;28.20;96.70;;;;;;5105575;28;20051;-72
2023/09/14 10:34:26;;;;;;;6.25;4.28;;;28.10;96.70;;;;;;5087310;28;20067;-72
2023/09/14 10:36:58;;;;;;;5.00;4.18;;;28.10;96.70;;;;;;5079254;28;20091;-72
2023/09/14 10:39:26;;;;;;;8.32;4.63;;;28.00;96.70;;;;;;5100163;28;20039;-72
2023/09/14 10:41:54;;;;;;;6.18;3.80;;;28.20;96.70;;;;;;5070761;28;20058;-71
2023/09/14 10:44:23;;;;;;;5.05;3.78;;;28.20;96.70;;;;;;5107994;27;20043;-71
2023/09/14 10:46:55;;;;;;;5.22;3.75;;;28.20;96.70;;;;;;5105512;28;20042;-72
2023/09/14 10:49:29;;;;;;;6.63;4.03;;;28.20;96.70;;;;;;5062867;28;20574;-71
2023/09/14 10:51:57;;;;;;;7.65;4.00;;;28.30;96.70;;;;;;5105497;28;20489;-71
2023/09/14 10:54:26;;;;;;;6.63;3.47;;;28.40;96.70;;;;;;5087244;28;20044;-72
2023/09/14 10:56:57;;;;;;;4.32;3.42;;;28.60;96.70;;;;;;5087386;28;20479;-71
2023/09/14 10:59:51;;;;;;;6.38;3.55;;;28.70;96.70;;;;;;5085889;28;20176;-72
2023/09/14 11:02:52;;;;;;;4.22;3.20;;;28.90;96.70;;;;;;5100907;28;20044;-72
2023/09/14 11:05:47;;;;;;;4.25;3.40;;;28.90;96.70;;;;;;5100623;28;20039;-71
2023/09/14 11:08:19;;;;;;;4.80;3.13;;;29.00;96.70;;;;;;5087324;28;20047;-72
2023/09/14 11:10:55;;;;;;;4.00;3.00;;;29.00;96.70;;;;;;5095702;28;20410;-71
2023/09/14 11:13:26;;;;;;;7.03;3.20;;;29.10;96.70;;;;;;5087395;28;20053;-71
2023/09/14 11:15:55;;;;;;;5.25;3.08;;;29.20;96.70;;;;;;5087077;28;20040;-71
2023/09/14 11:18:52;;;;;;;3.47;3.17;;;29.40;96.70;;;;;;5104907;28;20044;-71
2023/09/14 11:21:43;;;;;;;4.00;3.08;;;29.50;96.70;;;;;;5099140;28;20409;-71
2023/09/14 11:24:12;;;;;;;6.82;3.67;;;29.30;96.70;;;;;;5104858;28;20492;-71
2023/09/14 11:26:46;;;;;;;4.45;3.00;;;29.20;96.70;;;;;;5078099;28;20044;-72
2023/09/14 11:29:26;;;;;;;5.60;3.42;;;29.40;96.70;;;;;;5087898;28;20100;-71
2023/09/14 11:31:58;;;;;;;5.30;3.10;;;29.60;96.70;;;;;;5070545;28;20090;-72
2023/09/14 11:34:37;;;;;;;5.35;3.20;;;29.60;96.70;;;;;;5104498;28;20871;-72
2023/09/14 11:37:13;;;;;;;4.35;2.85;;;29.70;96.70;;;;;;5109090;28;20055;-72
2023/09/14 11:39:55;;;;;;;3.67;2.92;;;29.90;96.70;;;;;;5090684;28;20135;-73
2023/09/14 11:42:28;;;;;;;3.72;2.40;;;30.00;96.70;;;;;;5108423;28;20053;-72
2023/09/14 11:45:06;;;;;;;4.68;2.92;;;30.00;96.70;;;;;;5091825;28;20499;-72
2023/09/14 11:47:39;;;;;;;5.03;3.25;;;30.00;96.70;;;;;;5095614;28;20059;-72
2023/09/14 11:50:13;;;;;;;4.75;3.05;;;29.80;96.70;;;;;;5075939;28;20051;-73
2023/09/14 11:52:44;;;;;;;3.47;2.78;;;29.70;96.70;;;;;;5089927;28;20622;-72
2023/09/14 11:55:15;;;;;;;4.38;2.78;;;29.80;96.70;;;;;;5108397;28;20051;-72
2023/09/14 11:57:43;;;;;;;5.45;3.22;;;29.70;96.70;;;;;;5090598;28;20047;-72
2023/09/14 12:00:12;;;;;;;5.07;2.92;;;29.80;96.70;;;;;;5108501;28;20097;-72
2023/09/14 12:02:40;;;;;;;4.00;2.95;;;30.10;96.70;;;;;;5108217;28;20386;-73
2023/09/14 12:05:09;;;;;;;3.55;3.08;;;30.30;96.70;;;;;;5089934;28;20146;-72
2023/09/14 12:07:37;;;;;;;5.35;3.10;;;30.40;96.70;;;;;;5073342;28;20705;-72
2023/09/14 12:10:19;;;;;;;4.65;3.42;;;30.30;96.70;;;;;;5090158;28;20131;-72
2023/09/14 12:12:47;;;;;;;4.78;3.20;;;30.10;96.70;;;;;;5108411;28;20048;-72
2023/09/14 12:15:19;;;;;;;4.75;2.72;;;30.30;96.70;;;;;;5073339;28;20079;-73
2023/09/14 12:17:50;;;;;;;6.70;3.50;;;30.30;96.70;;;;;;5082241;28;20134;-72
2023/09/14 12:20:19;;;;;;;4.40;2.90;;;30.10;96.70;;;;;;5099195;28;20044;-73
2023/09/14 12:22:47;;;;;;;6.53;2.70;;;30.30;96.70;;;;;;5108467;28;20050;-72
2023/09/14 12:25:19;;;;;;;3.28;2.88;;;30.70;96.70;;;;;;5089587;28;20089;-73
2023/09/14 12:27:48;;;;;;;4.53;2.60;;;30.80;96.70;;;;;;5107697;28;20082;-72
2023/09/14 12:30:16;;;;;;;4.35;2.65;;;30.50;96.70;;;;;;5072128;28;20051;-72
2023/09/14 12:32:45;;;;;;;4.90;2.95;;;30.40;96.70;;;;;;5107929;28;20040;-72
2023/09/14 12:35:16;;;;;;;3.78;3.00;;;30.50;96.70;;;;;;5089870;28;20942;-72
2023/09/14 12:37:45;;;;;;;4.80;2.88;;;30.40;96.70;;;;;;5090314;28;20044;-72
2023/09/14 12:40:14;;;;;;;6.65;3.17;;;30.40;96.70;;;;;;5089005;28;20104;-73
2023/09/14 12:42:44;;;;;;;2.83;2.53;;;30.60;96.70;;;;;;5064674;28;20142;-72
2023/09/14 12:45:19;;;;;;;4.40;2.70;;;30.60;96.70;;;;;;5089833;28;20036;-73
2023/09/14 12:47:48;;;;;;;4.60;3.10;;;30.60;96.70;;;;;;5108369;28;20059;-73
2023/09/14 12:50:16;;;;;;;4.78;2.63;;;30.70;96.70;;;;;;5107795;28;20589;-72
2023/09/14 12:52:45;;;;;;;5.25;2.97;;;30.70;96.70;;;;;;5089327;28;20048;-73
2023/09/14 12:55:15;;;;;;;4.03;3.00;;;30.60;96.70;;;;;;5072414;28;20502;-73
2023/09/14 12:57:46;;;;;;;7.25;3.38;;;31.00;96.70;;;;;;5107456;28;20040;-73
2023/09/14 13:00:14;;;;;;;4.40;3.38;;;31.10;96.70;;;;;;5107622;28;20646;-73